sensor_id;sensor_type;location;lat;lon;timestamp;temperature;humidity
15717;DHT22;7960;50.908;4.204;2023-01-23T00:01:15;1.30;99.90
15717;DHT22;7960;50.908;4.204;2023-01-23T00:03:42;1.30;99.90
15717;DHT22;7960;50.908;4.204;2023-01-23T00:06:12;1.30;99.90
15717;DHT22;7960;50.908;4.204;2023-01-23T00:08:40;1.40;99.90
15717;DHT22;7960;50.908;4.204;2023-01-23T00:11:10;1.30;99.90
15717;DHT22;7960;50.908;4.204;2023-01-23T00:13:37;1.20;99.90
15717;DHT22;7960;50.908;4.204;2023-01-23T00:16:05;1.20;99.90
15717;DHT22;7960;50.908;4.204;2023-01-23T00:18:32;1.20;99.90
15717;DHT22;7960;50.908;4.204;2023-01-23T00:21:03;1.30;99.90
15717;DHT22;7960;50.908;4.204;2023-01-23T00:23:30;1.30;99.90
15717;DHT22;7960;50.908;4.204;2023-01-23T00:26:01;1.30;99.90
15717;DHT22;7960;50.908;4.204;2023-01-23T00:28:30;1.30;99.90
15717;DHT22;7960;50.908;4.204;2023-01-23T00:31:02;1.30;99.90
15717;DHT22;7960;50.908;4.204;2023-01-23T00:33:29;1.20;99.90
15717;DHT22;7960;50.908;4.204;2023-01-23T00:35:56;1.30;99.90
15717;DHT22;7960;50.908;4.204;2023-01-23T00:38:23;1.30;99.90
15717;DHT22;7960;50.908;4.204;2023-01-23T00:40:50;1.40;99.90
15717;DHT22;7960;50.908;4.204;2023-01-23T00:43:19;1.40;99.90
15717;DHT22;7960;50.908;4.204;2023-01-23T00:45:47;1.30;99.90
15717;DHT22;7960;50.908;4.204;2023-01-23T00:48:14;1.30;99.90
15717;DHT22;7960;50.908;4.204;2023-01-23T00:50:41;1.30;99.90
15717;DHT22;7960;50.908;4.204;2023-01-23T00:53:07;1.30;99.90
15717;DHT22;7960;50.908;4.204;2023-01-23T00:55:35;1.30;99.90
15717;DHT22;7960;50.908;4.204;2023-01-23T00:58:01;1.30;99.90
15717;DHT22;7960;50.908;4.204;2023-01-23T01:00:28;1.30;99.90
15717;DHT22;7960;50.908;4.204;2023-01-23T01:02:57;1.30;99.90
15717;DHT22;7960;50.908;4.204;2023-01-23T01:05:24;1.30;99.90
15717;DHT22;7960;50.908;4.204;2023-01-23T01:07:50;1.30;99.90
15717;DHT22;7960;50.908;4.204;2023-01-23T01:10:18;1.30;99.90
15717;DHT22;7960;50.908;4.204;2023-01-23T01:12:44;1.40;99.90
15717;DHT22;7960;50.908;4.204;2023-01-23T01:15:12;1.40;99.90
15717;DHT22;7960;50.908;4.204;2023-01-23T01:17:40;1.40;99.90
15717;DHT22;7960;50.908;4.204;2023-01-23T01:20:10;1.40;99.90
15717;DHT22;7960;50.908;4.204;2023-01-23T01:22:37;1.40;99.90
15717;DHT22;7960;50.908;4.204;2023-01-23T01:25:04;1.40;99.90
15717;DHT22;7960;50.908;4.204;2023-01-23T01:27:31;1.40;99.90
15717;DHT22;7960;50.908;4.204;2023-01-23T01:29:58;1.40;99.90
15717;DHT22;7960;50.908;4.204;2023-01-23T01:32:25;1.50;99.90
15717;DHT22;7960;50.908;4.204;2023-01-23T01:34:52;1.50;99.90
15717;DHT22;7960;50.908;4.204;2023-01-23T01:37:20;1.40;99.90
15717;DHT22;7960;50.908;4.204;2023-01-23T01:39:49;1.40;99.90
15717;DHT22;7960;50.908;4.204;2023-01-23T01:42:16;1.40;99.90
15717;DHT22;7960;50.908;4.204;2023-01-23T01:44:52;1.40;99.90
15717;DHT22;7960;50.908;4.204;2023-01-23T01:47:19;1.50;99.90
15717;DHT22;7960;50.908;4.204;2023-01-23T01:49:47;1.60;99.90
15717;DHT22;7960;50.908;4.204;2023-01-23T01:52:15;1.50;99.90
15717;DHT22;7960;50.908;4.204;2023-01-23T01:54:46;1.50;99.90
15717;DHT22;7960;50.908;4.204;2023-01-23T01:57:17;1.40;99.90
15717;DHT22;7960;50.908;4.204;2023-01-23T01:59:46;1.40;99.90
15717;DHT22;7960;50.908;4.204;2023-01-23T02:02:18;1.60;99.90
15717;DHT22;7960;50.908;4.204;2023-01-23T02:04:48;1.50;99.90
15717;DHT22;7960;50.908;4.204;2023-01-23T02:07:19;1.50;99.90
15717;DHT22;7960;50.908;4.204;2023-01-23T02:09:49;1.60;99.90
15717;DHT22;7960;50.908;4.204;2023-01-23T02:12:16;1.60;99.90
15717;DHT22;7960;50.908;4.204;2023-01-23T02:14:43;1.60;99.90
15717;DHT22;7960;50.908;4.204;2023-01-23T02:17:10;1.60;99.90
15717;DHT22;7960;50.908;4.204;2023-01-23T02:19:42;1.50;99.90
15717;DHT22;7960;50.908;4.204;2023-01-23T02:22:20;1.50;99.90
15717;DHT22;7960;50.908;4.204;2023-01-23T02:24:55;1.40;99.90
15717;DHT22;7960;50.908;4.204;2023-01-23T02:27:25;1.40;99.90
15717;DHT22;7960;50.908;4.204;2023-01-23T02:29:52;1.50;99.90
15717;DHT22;7960;50.908;4.204;2023-01-23T02:32:21;1.50;99.90
15717;DHT22;7960;50.908;4.204;2023-01-23T02:34:50;1.50;99.90
15717;DHT22;7960;50.908;4.204;2023-01-23T02:37:20;1.50;99.90
15717;DHT22;7960;50.908;4.204;2023-01-23T02:39:49;1.50;99.90
15717;DHT22;7960;50.908;4.204;2023-01-23T02:42:16;1.50;99.90
15717;DHT22;7960;50.908;4.204;2023-01-23T02:44:44;1.50;99.90
15717;DHT22;7960;50.908;4.204;2023-01-23T02:47:11;1.50;99.90
15717;DHT22;7960;50.908;4.204;2023-01-23T02:49:38;1.50;99.90
15717;DHT22;7960;50.908;4.204;2023-01-23T02:52:07;1.40;99.90
15717;DHT22;7960;50.908;4.204;2023-01-23T02:54:35;1.50;99.90
15717;DHT22;7960;50.908;4.204;2023-01-23T02:57:02;1.50;99.90
15717;DHT22;7960;50.908;4.204;2023-01-23T02:59:29;1.50;99.90
15717;DHT22;7960;50.908;4.204;2023-01-23T03:02:15;1.60;99.90
15717;DHT22;7960;50.908;4.204;2023-01-23T03:04:42;1.40;99.90
15717;DHT22;7960;50.908;4.204;2023-01-23T03:07:08;1.50;99.90
15717;DHT22;7960;50.908;4.204;2023-01-23T03:09:35;1.50;99.90
15717;DHT22;7960;50.908;4.204;2023-01-23T03:12:02;1.50;99.90
15717;DHT22;7960;50.908;4.204;2023-01-23T03:14:29;1.50;99.90
15717;DHT22;7960;50.908;4.204;2023-01-23T03:16:56;1.50;99.90
15717;DHT22;7960;50.908;4.204;2023-01-23T03:19:25;1.40;99.90
15717;DHT22;7960;50.908;4.204;2023-01-23T03:21:52;1.40;99.90
15717;DHT22;7960;50.908;4.204;2023-01-23T03:24:19;1.40;99.90
15717;DHT22;7960;50.908;4.204;2023-01-23T03:26:48;1.40;99.90
15717;DHT22;7960;50.908;4.204;2023-01-23T03:29:15;1.40;99.90
15717;DHT22;7960;50.908;4.204;2023-01-23T03:32:00;1.40;99.90
15717;DHT22;7960;50.908;4.204;2023-01-23T03:34:29;1.40;99.90
15717;DHT22;7960;50.908;4.204;2023-01-23T03:36:57;1.40;99.90
15717;DHT22;7960;50.908;4.204;2023-01-23T03:39:25;1.40;99.90
15717;DHT22;7960;50.908;4.204;2023-01-23T03:42:09;1.40;99.90
15717;DHT22;7960;50.908;4.204;2023-01-23T03:44:36;1.40;99.90
15717;DHT22;7960;50.908;4.204;2023-01-23T03:47:03;1.40;99.90
15717;DHT22;7960;50.908;4.204;2023-01-23T03:49:31;1.40;99.90
15717;DHT22;7960;50.908;4.204;2023-01-23T03:51:58;1.40;99.90
15717;DHT22;7960;50.908;4.204;2023-01-23T03:54:25;1.40;99.90
15717;DHT22;7960;50.908;4.204;2023-01-23T03:56:53;1.40;99.90
15717;DHT22;7960;50.908;4.204;2023-01-23T03:59:19;1.50;99.90
15717;DHT22;7960;50.908;4.204;2023-01-23T04:01:46;1.40;99.90
15717;DHT22;7960;50.908;4.204;2023-01-23T04:04:13;1.40;99.90
15717;DHT22;7960;50.908;4.204;2023-01-23T04:06:41;1.50;99.90
15717;DHT22;7960;50.908;4.204;2023-01-23T04:09:08;1.50;99.90
15717;DHT22;7960;50.908;4.204;2023-01-23T04:11:35;1.50;99.90
15717;DHT22;7960;50.908;4.204;2023-01-23T04:14:02;1.50;99.90
15717;DHT22;7960;50.908;4.204;2023-01-23T04:16:31;1.50;99.90
15717;DHT22;7960;50.908;4.204;2023-01-23T04:18:58;1.50;99.90
15717;DHT22;7960;50.908;4.204;2023-01-23T04:21:25;1.50;99.90
15717;DHT22;7960;50.908;4.204;2023-01-23T04:23:53;1.50;99.90
15717;DHT22;7960;50.908;4.204;2023-01-23T04:26:20;1.50;99.90
15717;DHT22;7960;50.908;4.204;2023-01-23T04:28:47;1.50;99.90
15717;DHT22;7960;50.908;4.204;2023-01-23T04:31:14;1.50;99.90
15717;DHT22;7960;50.908;4.204;2023-01-23T04:33:40;1.50;99.90
15717;DHT22;7960;50.908;4.204;2023-01-23T04:36:09;1.50;99.90
15717;DHT22;7960;50.908;4.204;2023-01-23T04:38:36;1.50;99.90
15717;DHT22;7960;50.908;4.204;2023-01-23T04:41:04;1.60;99.90
15717;DHT22;7960;50.908;4.204;2023-01-23T04:43:31;1.60;99.90
15717;DHT22;7960;50.908;4.204;2023-01-23T04:46:00;1.50;99.90
15717;DHT22;7960;50.908;4.204;2023-01-23T04:48:27;1.50;99.90
15717;DHT22;7960;50.908;4.204;2023-01-23T04:50:54;1.70;99.90
15717;DHT22;7960;50.908;4.204;2023-01-23T04:53:20;1.60;99.90
15717;DHT22;7960;50.908;4.204;2023-01-23T04:55:47;1.50;99.90
15717;DHT22;7960;50.908;4.204;2023-01-23T04:58:17;1.50;99.90
15717;DHT22;7960;50.908;4.204;2023-01-23T05:00:45;1.60;99.90
15717;DHT22;7960;50.908;4.204;2023-01-23T05:03:12;1.60;99.90
15717;DHT22;7960;50.908;4.204;2023-01-23T05:05:39;1.60;99.90
15717;DHT22;7960;50.908;4.204;2023-01-23T05:08:07;1.60;99.90
15717;DHT22;7960;50.908;4.204;2023-01-23T05:10:34;1.60;99.90
15717;DHT22;7960;50.908;4.204;2023-01-23T05:13:01;1.60;99.90
15717;DHT22;7960;50.908;4.204;2023-01-23T05:15:30;1.70;99.90
15717;DHT22;7960;50.908;4.204;2023-01-23T05:17:57;1.70;99.90
15717;DHT22;7960;50.908;4.204;2023-01-23T05:20:24;1.60;99.90
15717;DHT22;7960;50.908;4.204;2023-01-23T05:22:51;1.70;99.90
15717;DHT22;7960;50.908;4.204;2023-01-23T05:25:19;1.60;99.90
15717;DHT22;7960;50.908;4.204;2023-01-23T05:27:46;1.70;99.90
15717;DHT22;7960;50.908;4.204;2023-01-23T05:30:13;1.60;99.90
15717;DHT22;7960;50.908;4.204;2023-01-23T05:32:41;1.70;99.90
15717;DHT22;7960;50.908;4.204;2023-01-23T05:35:09;1.70;99.90
15717;DHT22;7960;50.908;4.204;2023-01-23T05:37:36;1.70;99.90
15717;DHT22;7960;50.908;4.204;2023-01-23T05:40:03;1.70;99.90
15717;DHT22;7960;50.908;4.204;2023-01-23T05:42:31;1.70;99.90
15717;DHT22;7960;50.908;4.204;2023-01-23T05:44:58;1.60;99.90
15717;DHT22;7960;50.908;4.204;2023-01-23T05:47:25;1.70;99.90
15717;DHT22;7960;50.908;4.204;2023-01-23T05:49:53;1.60;99.90
15717;DHT22;7960;50.908;4.204;2023-01-23T05:52:20;1.60;99.90
15717;DHT22;7960;50.908;4.204;2023-01-23T05:54:47;1.60;99.90
15717;DHT22;7960;50.908;4.204;2023-01-23T05:57:15;1.70;99.90
15717;DHT22;7960;50.908;4.204;2023-01-23T05:59:41;1.70;99.90
15717;DHT22;7960;50.908;4.204;2023-01-23T06:02:09;1.70;99.90
15717;DHT22;7960;50.908;4.204;2023-01-23T06:04:36;1.70;99.90
15717;DHT22;7960;50.908;4.204;2023-01-23T06:07:04;1.70;99.90
15717;DHT22;7960;50.908;4.204;2023-01-23T06:09:31;1.80;99.90
15717;DHT22;7960;50.908;4.204;2023-01-23T06:11:58;1.70;99.90
15717;DHT22;7960;50.908;4.204;2023-01-23T06:14:25;1.80;99.90
15717;DHT22;7960;50.908;4.204;2023-01-23T06:16:52;1.80;99.90
15717;DHT22;7960;50.908;4.204;2023-01-23T06:19:21;1.80;99.90
15717;DHT22;7960;50.908;4.204;2023-01-23T06:21:48;1.80;99.90
15717;DHT22;7960;50.908;4.204;2023-01-23T06:24:16;1.90;99.90
15717;DHT22;7960;50.908;4.204;2023-01-23T06:26:43;1.80;99.90
15717;DHT22;7960;50.908;4.204;2023-01-23T06:29:10;1.80;99.90
15717;DHT22;7960;50.908;4.204;2023-01-23T06:31:37;1.90;99.90
15717;DHT22;7960;50.908;4.204;2023-01-23T06:34:05;1.90;99.90
15717;DHT22;7960;50.908;4.204;2023-01-23T06:36:32;1.90;99.90
15717;DHT22;7960;50.908;4.204;2023-01-23T06:38:59;1.90;99.90
15717;DHT22;7960;50.908;4.204;2023-01-23T06:41:27;1.90;99.90
15717;DHT22;7960;50.908;4.204;2023-01-23T06:43:54;2.00;99.90
15717;DHT22;7960;50.908;4.204;2023-01-23T06:46:21;2.00;99.90
15717;DHT22;7960;50.908;4.204;2023-01-23T06:48:48;2.00;99.90
15717;DHT22;7960;50.908;4.204;2023-01-23T06:51:15;2.00;99.90
15717;DHT22;7960;50.908;4.204;2023-01-23T06:53:42;2.00;99.90
15717;DHT22;7960;50.908;4.204;2023-01-23T06:56:09;2.00;99.90
15717;DHT22;7960;50.908;4.204;2023-01-23T06:58:42;1.90;99.90
15717;DHT22;7960;50.908;4.204;2023-01-23T07:01:11;1.90;99.90
15717;DHT22;7960;50.908;4.204;2023-01-23T07:03:40;2.00;99.90
15717;DHT22;7960;50.908;4.204;2023-01-23T07:06:10;1.90;99.90
15717;DHT22;7960;50.908;4.204;2023-01-23T07:08:37;1.90;99.90
15717;DHT22;7960;50.908;4.204;2023-01-23T07:11:04;1.90;99.90
15717;DHT22;7960;50.908;4.204;2023-01-23T07:13:32;1.90;99.90
15717;DHT22;7960;50.908;4.204;2023-01-23T07:16:00;1.90;99.90
15717;DHT22;7960;50.908;4.204;2023-01-23T07:18:27;1.90;99.90
15717;DHT22;7960;50.908;4.204;2023-01-23T07:20:55;1.90;99.90
15717;DHT22;7960;50.908;4.204;2023-01-23T07:23:22;2.00;99.90
15717;DHT22;7960;50.908;4.204;2023-01-23T07:25:49;1.90;99.90
15717;DHT22;7960;50.908;4.204;2023-01-23T07:28:16;1.90;99.90
15717;DHT22;7960;50.908;4.204;2023-01-23T07:30:43;1.90;99.90
15717;DHT22;7960;50.908;4.204;2023-01-23T07:33:11;2.00;99.90
15717;DHT22;7960;50.908;4.204;2023-01-23T07:35:38;2.00;99.90
15717;DHT22;7960;50.908;4.204;2023-01-23T07:38:06;2.00;99.90
15717;DHT22;7960;50.908;4.204;2023-01-23T07:40:33;2.00;99.90
15717;DHT22;7960;50.908;4.204;2023-01-23T07:43:03;2.00;99.90
15717;DHT22;7960;50.908;4.204;2023-01-23T07:45:30;2.10;99.90
15717;DHT22;7960;50.908;4.204;2023-01-23T07:47:57;2.00;99.90
15717;DHT22;7960;50.908;4.204;2023-01-23T07:50:25;2.00;99.90
15717;DHT22;7960;50.908;4.204;2023-01-23T07:52:52;1.90;99.90
15717;DHT22;7960;50.908;4.204;2023-01-23T07:55:19;1.90;99.90
15717;DHT22;7960;50.908;4.204;2023-01-23T07:57:46;2.00;99.90
15717;DHT22;7960;50.908;4.204;2023-01-23T08:00:13;1.90;99.90
15717;DHT22;7960;50.908;4.204;2023-01-23T08:02:41;2.00;99.90
15717;DHT22;7960;50.908;4.204;2023-01-23T08:05:08;2.00;99.90
15717;DHT22;7960;50.908;4.204;2023-01-23T08:07:36;2.00;99.90
15717;DHT22;7960;50.908;4.204;2023-01-23T08:10:03;2.10;99.90
15717;DHT22;7960;50.908;4.204;2023-01-23T08:12:30;2.00;99.90
15717;DHT22;7960;50.908;4.204;2023-01-23T08:14:57;2.00;99.90
15717;DHT22;7960;50.908;4.204;2023-01-23T08:17:24;2.10;99.90
15717;DHT22;7960;50.908;4.204;2023-01-23T08:19:51;2.10;99.90
15717;DHT22;7960;50.908;4.204;2023-01-23T08:22:18;2.00;99.90
15717;DHT22;7960;50.908;4.204;2023-01-23T08:24:46;2.10;99.90
15717;DHT22;7960;50.908;4.204;2023-01-23T08:27:13;2.10;99.90
15717;DHT22;7960;50.908;4.204;2023-01-23T08:29:42;2.20;99.90
15717;DHT22;7960;50.908;4.204;2023-01-23T08:32:08;2.20;99.90
15717;DHT22;7960;50.908;4.204;2023-01-23T08:34:35;2.20;99.90
15717;DHT22;7960;50.908;4.204;2023-01-23T08:37:02;2.20;99.90
15717;DHT22;7960;50.908;4.204;2023-01-23T08:39:29;2.30;99.90
15717;DHT22;7960;50.908;4.204;2023-01-23T08:41:57;2.40;99.90
15717;DHT22;7960;50.908;4.204;2023-01-23T08:44:25;2.30;99.90
15717;DHT22;7960;50.908;4.204;2023-01-23T08:46:51;2.30;99.90
15717;DHT22;7960;50.908;4.204;2023-01-23T08:49:18;2.20;99.90
15717;DHT22;7960;50.908;4.204;2023-01-23T08:51:45;2.20;99.90
15717;DHT22;7960;50.908;4.204;2023-01-23T08:54:12;2.20;99.90
15717;DHT22;7960;50.908;4.204;2023-01-23T08:56:40;2.20;99.90
15717;DHT22;7960;50.908;4.204;2023-01-23T08:59:08;2.30;99.90
15717;DHT22;7960;50.908;4.204;2023-01-23T09:01:36;2.40;99.90
15717;DHT22;7960;50.908;4.204;2023-01-23T09:04:03;2.40;99.90
15717;DHT22;7960;50.908;4.204;2023-01-23T09:06:30;2.40;99.90
15717;DHT22;7960;50.908;4.204;2023-01-23T09:08:57;2.40;99.90
15717;DHT22;7960;50.908;4.204;2023-01-23T09:11:25;2.40;99.90
15717;DHT22;7960;50.908;4.204;2023-01-23T09:13:52;2.40;99.90
15717;DHT22;7960;50.908;4.204;2023-01-23T09:16:22;2.50;99.90
15717;DHT22;7960;50.908;4.204;2023-01-23T09:18:48;2.50;99.90
15717;DHT22;7960;50.908;4.204;2023-01-23T09:21:16;2.50;99.90
15717;DHT22;7960;50.908;4.204;2023-01-23T09:23:44;2.50;99.90
15717;DHT22;7960;50.908;4.204;2023-01-23T09:26:13;2.50;99.90
15717;DHT22;7960;50.908;4.204;2023-01-23T09:28:40;2.50;99.90
15717;DHT22;7960;50.908;4.204;2023-01-23T09:31:09;2.60;99.90
15717;DHT22;7960;50.908;4.204;2023-01-23T09:33:38;2.60;99.90
15717;DHT22;7960;50.908;4.204;2023-01-23T09:36:06;2.60;99.90
15717;DHT22;7960;50.908;4.204;2023-01-23T09:38:33;2.60;99.90
15717;DHT22;7960;50.908;4.204;2023-01-23T09:41:07;2.70;99.90
15717;DHT22;7960;50.908;4.204;2023-01-23T09:43:39;2.70;99.90
15717;DHT22;7960;50.908;4.204;2023-01-23T09:46:14;2.80;99.90
15717;DHT22;7960;50.908;4.204;2023-01-23T09:48:45;2.70;99.90
15717;DHT22;7960;50.908;4.204;2023-01-23T09:51:18;2.70;99.90
15717;DHT22;7960;50.908;4.204;2023-01-23T09:53:45;2.70;99.90
15717;DHT22;7960;50.908;4.204;2023-01-23T09:56:21;2.70;99.90
15717;DHT22;7960;50.908;4.204;2023-01-23T09:58:59;2.80;99.90
15717;DHT22;7960;50.908;4.204;2023-01-23T10:01:28;2.80;99.90
15717;DHT22;7960;50.908;4.204;2023-01-23T10:03:58;2.90;99.90
15717;DHT22;7960;50.908;4.204;2023-01-23T10:06:28;2.90;99.90
15717;DHT22;7960;50.908;4.204;2023-01-23T10:09:14;2.80;99.90
15717;DHT22;7960;50.908;4.204;2023-01-23T10:11:54;2.80;99.90
15717;DHT22;7960;50.908;4.204;2023-01-23T10:14:38;2.90;99.90
15717;DHT22;7960;50.908;4.204;2023-01-23T10:17:11;3.10;99.90
15717;DHT22;7960;50.908;4.204;2023-01-23T10:19:49;3.10;99.90
15717;DHT22;7960;50.908;4.204;2023-01-23T10:22:31;3.10;99.90
15717;DHT22;7960;50.908;4.204;2023-01-23T10:25:01;3.10;99.90
15717;DHT22;7960;50.908;4.204;2023-01-23T10:27:33;3.00;99.90
15717;DHT22;7960;50.908;4.204;2023-01-23T10:30:03;3.10;99.90
15717;DHT22;7960;50.908;4.204;2023-01-23T10:32:31;3.10;99.90
15717;DHT22;7960;50.908;4.204;2023-01-23T10:35:02;3.10;99.90
15717;DHT22;7960;50.908;4.204;2023-01-23T10:37:39;3.10;99.90
15717;DHT22;7960;50.908;4.204;2023-01-23T10:40:12;3.20;99.90
15717;DHT22;7960;50.908;4.204;2023-01-23T10:42:39;3.20;99.90
15717;DHT22;7960;50.908;4.204;2023-01-23T10:45:14;3.20;99.90
15717;DHT22;7960;50.908;4.204;2023-01-23T10:47:44;3.20;99.90
15717;DHT22;7960;50.908;4.204;2023-01-23T10:50:15;3.20;99.90
15717;DHT22;7960;50.908;4.204;2023-01-23T10:52:43;3.10;99.90
15717;DHT22;7960;50.908;4.204;2023-01-23T10:55:35;3.10;99.90
15717;DHT22;7960;50.908;4.204;2023-01-23T10:58:02;3.10;99.90
15717;DHT22;7960;50.908;4.204;2023-01-23T11:00:34;3.30;99.90
15717;DHT22;7960;50.908;4.204;2023-01-23T11:03:25;3.20;99.90
15717;DHT22;7960;50.908;4.204;2023-01-23T11:05:56;3.30;99.90
15717;DHT22;7960;50.908;4.204;2023-01-23T11:08:28;3.20;99.90
15717;DHT22;7960;50.908;4.204;2023-01-23T11:11:17;3.20;99.90
15717;DHT22;7960;50.908;4.204;2023-01-23T11:13:47;3.30;99.90
15717;DHT22;7960;50.908;4.204;2023-01-23T11:16:15;3.40;99.90
15717;DHT22;7960;50.908;4.204;2023-01-23T11:18:48;3.40;99.90
15717;DHT22;7960;50.908;4.204;2023-01-23T11:21:22;3.50;99.90
15717;DHT22;7960;50.908;4.204;2023-01-23T11:24:06;3.40;99.90
15717;DHT22;7960;50.908;4.204;2023-01-23T11:26:35;3.40;99.90
15717;DHT22;7960;50.908;4.204;2023-01-23T11:29:19;3.40;99.90
15717;DHT22;7960;50.908;4.204;2023-01-23T11:31:47;3.50;99.90
15717;DHT22;7960;50.908;4.204;2023-01-23T11:34:22;3.50;99.90
15717;DHT22;7960;50.908;4.204;2023-01-23T11:36:53;3.50;99.90
15717;DHT22;7960;50.908;4.204;2023-01-23T11:39:38;3.60;99.90
15717;DHT22;7960;50.908;4.204;2023-01-23T11:42:09;3.60;99.90
15717;DHT22;7960;50.908;4.204;2023-01-23T11:44:37;3.70;99.90
15717;DHT22;7960;50.908;4.204;2023-01-23T11:47:34;3.60;99.90
15717;DHT22;7960;50.908;4.204;2023-01-23T11:50:33;3.50;99.90
15717;DHT22;7960;50.908;4.204;2023-01-23T11:53:09;3.50;99.90
15717;DHT22;7960;50.908;4.204;2023-01-23T11:56:04;3.60;99.90
15717;DHT22;7960;50.908;4.204;2023-01-23T11:58:55;3.60;99.90
15717;DHT22;7960;50.908;4.204;2023-01-23T12:01:41;3.70;99.90
15717;DHT22;7960;50.908;4.204;2023-01-23T12:07:15;3.60;99.90
15717;DHT22;7960;50.908;4.204;2023-01-23T12:09:53;3.50;99.90
15717;DHT22;7960;50.908;4.204;2023-01-23T12:12:30;3.60;99.90
15717;DHT22;7960;50.908;4.204;2023-01-23T12:15:11;3.50;99.90
15717;DHT22;7960;50.908;4.204;2023-01-23T12:17:47;3.60;99.90
15717;DHT22;7960;50.908;4.204;2023-01-23T12:20:35;3.60;99.90
15717;DHT22;7960;50.908;4.204;2023-01-23T12:23:32;3.60;99.90
15717;DHT22;7960;50.908;4.204;2023-01-23T12:26:11;3.60;99.90
15717;DHT22;7960;50.908;4.204;2023-01-23T12:29:17;3.60;99.90
15717;DHT22;7960;50.908;4.204;2023-01-23T12:32:00;3.70;99.90
15717;DHT22;7960;50.908;4.204;2023-01-23T12:34:42;3.70;99.90
15717;DHT22;7960;50.908;4.204;2023-01-23T12:37:36;3.70;99.90
15717;DHT22;7960;50.908;4.204;2023-01-23T12:40:12;3.70;99.90
15717;DHT22;7960;50.908;4.204;2023-01-23T12:42:49;3.70;99.90
15717;DHT22;7960;50.908;4.204;2023-01-23T12:45:22;3.70;99.90
15717;DHT22;7960;50.908;4.204;2023-01-23T12:47:59;3.80;99.90
15717;DHT22;7960;50.908;4.204;2023-01-23T12:50:35;3.80;99.90
15717;DHT22;7960;50.908;4.204;2023-01-23T12:53:05;3.80;99.90
15717;DHT22;7960;50.908;4.204;2023-01-23T12:55:36;3.70;99.90
15717;DHT22;7960;50.908;4.204;2023-01-23T12:58:08;3.70;99.90
15717;DHT22;7960;50.908;4.204;2023-01-23T13:00:46;3.70;99.90
15717;DHT22;7960;50.908;4.204;2023-01-23T13:03:27;3.80;99.90
15717;DHT22;7960;50.908;4.204;2023-01-23T13:06:08;3.80;99.90
15717;DHT22;7960;50.908;4.204;2023-01-23T13:08:42;3.80;99.90
15717;DHT22;7960;50.908;4.204;2023-01-23T13:11:15;3.80;99.90
15717;DHT22;7960;50.908;4.204;2023-01-23T13:14:15;3.80;99.90
15717;DHT22;7960;50.908;4.204;2023-01-23T13:16:45;3.80;99.90
15717;DHT22;7960;50.908;4.204;2023-01-23T13:19:22;3.80;99.90
15717;DHT22;7960;50.908;4.204;2023-01-23T13:22:13;3.80;99.90
15717;DHT22;7960;50.908;4.204;2023-01-23T13:24:45;3.70;99.90
15717;DHT22;7960;50.908;4.204;2023-01-23T13:27:44;3.70;99.90
15717;DHT22;7960;50.908;4.204;2023-01-23T13:30:39;3.70;99.90
15717;DHT22;7960;50.908;4.204;2023-01-23T13:36:34;3.60;99.90
15717;DHT22;7960;50.908;4.204;2023-01-23T13:41:50;3.70;99.90
15717;DHT22;7960;50.908;4.204;2023-01-23T13:44:19;3.60;99.90
15717;DHT22;7960;50.908;4.204;2023-01-23T13:47:11;3.60;99.90
15717;DHT22;7960;50.908;4.204;2023-01-23T13:50:04;3.60;99.90
15717;DHT22;7960;50.908;4.204;2023-01-23T13:52:35;3.60;99.90
15717;DHT22;7960;50.908;4.204;2023-01-23T13:55:23;3.60;99.90
15717;DHT22;7960;50.908;4.204;2023-01-23T13:58:10;3.50;99.90
15717;DHT22;7960;50.908;4.204;2023-01-23T14:00:38;3.60;99.90
15717;DHT22;7960;50.908;4.204;2023-01-23T14:03:21;3.70;99.90
15717;DHT22;7960;50.908;4.204;2023-01-23T14:06:12;3.60;99.90
15717;DHT22;7960;50.908;4.204;2023-01-23T14:08:47;3.70;99.90
15717;DHT22;7960;50.908;4.204;2023-01-23T14:11:14;3.70;99.90
15717;DHT22;7960;50.908;4.204;2023-01-23T14:13:46;3.70;99.90
15717;DHT22;7960;50.908;4.204;2023-01-23T14:16:14;3.70;99.90
15717;DHT22;7960;50.908;4.204;2023-01-23T14:18:53;3.80;99.90
15717;DHT22;7960;50.908;4.204;2023-01-23T14:21:23;3.70;99.90
15717;DHT22;7960;50.908;4.204;2023-01-23T14:23:52;3.60;99.90
15717;DHT22;7960;50.908;4.204;2023-01-23T14:26:27;3.70;99.90
15717;DHT22;7960;50.908;4.204;2023-01-23T14:28:56;3.70;99.90
15717;DHT22;7960;50.908;4.204;2023-01-23T14:31:26;3.70;99.90
15717;DHT22;7960;50.908;4.204;2023-01-23T14:34:03;3.70;99.90
15717;DHT22;7960;50.908;4.204;2023-01-23T14:36:43;3.60;99.90
15717;DHT22;7960;50.908;4.204;2023-01-23T14:39:15;3.60;99.90
15717;DHT22;7960;50.908;4.204;2023-01-23T14:41:45;3.60;99.90
15717;DHT22;7960;50.908;4.204;2023-01-23T14:44:18;3.60;99.90
15717;DHT22;7960;50.908;4.204;2023-01-23T14:46:49;3.60;99.90
15717;DHT22;7960;50.908;4.204;2023-01-23T14:49:23;3.70;99.90
15717;DHT22;7960;50.908;4.204;2023-01-23T14:51:58;3.70;99.90
15717;DHT22;7960;50.908;4.204;2023-01-23T14:54:26;3.80;99.90
15717;DHT22;7960;50.908;4.204;2023-01-23T14:56:54;3.70;99.90
15717;DHT22;7960;50.908;4.204;2023-01-23T14:59:27;3.70;99.90
15717;DHT22;7960;50.908;4.204;2023-01-23T15:01:57;3.80;99.90
15717;DHT22;7960;50.908;4.204;2023-01-23T15:04:27;3.80;99.90
15717;DHT22;7960;50.908;4.204;2023-01-23T15:06:57;3.80;99.90
15717;DHT22;7960;50.908;4.204;2023-01-23T15:09:28;3.80;99.90
15717;DHT22;7960;50.908;4.204;2023-01-23T15:12:03;3.80;99.90
15717;DHT22;7960;50.908;4.204;2023-01-23T15:14:35;3.80;99.90
15717;DHT22;7960;50.908;4.204;2023-01-23T15:17:04;3.80;99.90
15717;DHT22;7960;50.908;4.204;2023-01-23T15:19:36;3.80;99.90
15717;DHT22;7960;50.908;4.204;2023-01-23T15:22:05;3.80;99.90
15717;DHT22;7960;50.908;4.204;2023-01-23T15:24:33;3.80;99.90
15717;DHT22;7960;50.908;4.204;2023-01-23T15:27:03;3.90;99.90
15717;DHT22;7960;50.908;4.204;2023-01-23T15:29:33;3.90;99.90
15717;DHT22;7960;50.908;4.204;2023-01-23T15:32:12;3.80;99.90
15717;DHT22;7960;50.908;4.204;2023-01-23T15:34:51;3.80;99.90
15717;DHT22;7960;50.908;4.204;2023-01-23T15:37:22;3.70;99.90
15717;DHT22;7960;50.908;4.204;2023-01-23T15:39:51;3.70;99.90
15717;DHT22;7960;50.908;4.204;2023-01-23T15:42:26;3.70;99.90
15717;DHT22;7960;50.908;4.204;2023-01-23T15:44:53;3.50;99.90
15717;DHT22;7960;50.908;4.204;2023-01-23T15:47:26;3.60;99.90
15717;DHT22;7960;50.908;4.204;2023-01-23T15:49:54;3.60;99.90
15717;DHT22;7960;50.908;4.204;2023-01-23T15:52:26;3.70;99.90
15717;DHT22;7960;50.908;4.204;2023-01-23T15:54:55;3.60;99.90
15717;DHT22;7960;50.908;4.204;2023-01-23T15:57:23;3.50;99.90
15717;DHT22;7960;50.908;4.204;2023-01-23T15:59:50;3.50;99.90
15717;DHT22;7960;50.908;4.204;2023-01-23T16:02:18;3.50;99.90
15717;DHT22;7960;50.908;4.204;2023-01-23T16:04:47;3.60;99.90
15717;DHT22;7960;50.908;4.204;2023-01-23T16:07:22;3.50;99.90
15717;DHT22;7960;50.908;4.204;2023-01-23T16:09:52;3.60;99.90
15717;DHT22;7960;50.908;4.204;2023-01-23T16:12:25;3.60;99.90
15717;DHT22;7960;50.908;4.204;2023-01-23T16:14:54;3.50;99.90
15717;DHT22;7960;50.908;4.204;2023-01-23T16:17:21;3.50;99.90
15717;DHT22;7960;50.908;4.204;2023-01-23T16:19:48;3.60;99.90
15717;DHT22;7960;50.908;4.204;2023-01-23T16:22:23;3.60;99.90
15717;DHT22;7960;50.908;4.204;2023-01-23T16:24:51;3.60;99.90
15717;DHT22;7960;50.908;4.204;2023-01-23T16:27:19;3.60;99.90
15717;DHT22;7960;50.908;4.204;2023-01-23T16:29:52;3.50;99.90
15717;DHT22;7960;50.908;4.204;2023-01-23T16:32:20;3.50;99.90
15717;DHT22;7960;50.908;4.204;2023-01-23T16:34:47;3.50;99.90